Messwerte Guanajuato

Temperatur

Temperatur
°C
1614492000 0.00 0.00 14
1614495600 1.00 1.00
1614499200 2.00 2.00
1614502800 3.00 3.00
1614506400 4.00 4.00 11
1614510000 5.00 5.00 10
1614513600 6.00 6.00
1614517200 7.00 7.00 10
1614520800 8.00 8.00 11
1614524400 9.00 9.00 17
1614528000 10.00 10.00 20
1614531600 11.00 11.00 23
1614535200 12.00 12.00 24
1614538800 13.00 13.00 25
1614542400 14.00 14.00 27
1614546000 15.00 15.00 29
1614549600 16.00 16.00 29
1614553200 17.00 17.00 29
1614556800 18.00 18.00 29
1614560400 19.00 19.00 26
1614564000 20.00 20.00 23
1614567600 21.00 21.00 21
1614571200 22.00 22.00 19
1614574800 23.00 23.00 17

Aktuellste Messwerte

Wettercharakter
Wetter: klar
Temperatur
16 °C
Feuchtigkeit
35 %
Wind
5 km/hWindrichtung: Nordwest
Luftdruck
1023 hPa
Messzeit: 1. März 2021, 0.00Datenquelle: METAR

Weitere Messstationen in der Nähe

Messstation Temperatur Entfernung
Queretaro 16 °C 103 km
San Luis Potosí 18 °C 135 km
Aguascalientes - 143 km
Morelia - 145 km
Uruapan - 194 km
Guadalajara 14 °C 221 km
Toluca 7 °C 254 km

Wind

Windrichtung Böen Mittelwind
° km/h km/h
1614492000 0.00 23.00 - 0.00 0
1614495600 1.00 0.00 - 1.00
1614499200 2.00 1.00 - 2.00
1614502800 3.00 2.00 - 3.00
1614506400 4.00 3.00 - 4.00 0
1614510000 5.00 4.00 - 5.00 0
1614513600 6.00 5.00 - 6.00
1614517200 7.00 6.00 - 7.00 0
1614520800 8.00 7.00 - 8.00 0
1614524400 9.00 8.00 - 9.00 0
1614528000 10.00 9.00 - 10.00 0
1614531600 11.00 10.00 - 11.00 0
1614535200 12.00 11.00 - 12.00 0
1614538800 13.00 12.00 - 13.00 360° 10
1614542400 14.00 13.00 - 14.00 260° 20
1614546000 15.00 14.00 - 15.00 270° 20
1614549600 16.00 15.00 - 16.00 250° 10
1614553200 17.00 16.00 - 17.00 280° 20
1614556800 18.00 17.00 - 18.00 280° 25
1614560400 19.00 18.00 - 19.00 270° 10
1614564000 20.00 19.00 - 20.00 260° 10
1614567600 21.00 20.00 - 21.00 300° 10
1614571200 22.00 21.00 - 22.00 0
1614574800 23.00 22.00 - 23.00 0

Ihre Wetterstation

Fehlt Ihre Wetterstation auf unserem Portal?

Schreiben Sie an network@meteonews.ch

Klima

Wann ist es am wärmsten? Wann regnet es am wenigsten? Unsere Klimadaten geben Auskunft.